createdAt,value
2019-02-28T00:00:13.339Z,100977.16
2019-02-28T00:02:41.652Z,100982.65
2019-02-28T00:05:09.942Z,100978.30
2019-02-28T00:07:38.245Z,100972.70
2019-02-28T00:10:08.074Z,100957.20
2019-02-28T00:12:36.361Z,100952.84
2019-02-28T00:15:07.479Z,100957.14
2019-02-28T00:17:35.775Z,100956.41
2019-02-28T00:20:05.193Z,100964.30
2019-02-28T00:22:33.467Z,100959.95
2019-02-28T00:25:04.224Z,100958.93
2019-02-28T00:27:31.757Z,100953.55
2019-02-28T00:30:00.048Z,100941.11
2019-02-28T00:32:28.389Z,100940.66
2019-02-28T00:34:56.670Z,100936.96
2019-02-28T00:37:25.740Z,100932.88
2019-02-28T00:39:54.035Z,100934.35
2019-02-28T00:42:22.326Z,100932.91
2019-02-28T00:44:50.603Z,100926.62
2019-02-28T00:47:18.889Z,100926.97
2019-02-28T00:49:47.163Z,100919.73
2019-02-28T00:52:15.479Z,100920.70
2019-02-28T00:54:44.542Z,100910.31
2019-02-28T00:57:12.850Z,100902.05
2019-02-28T00:59:41.127Z,100901.93
2019-02-28T01:02:09.473Z,100900.25
2019-02-28T01:04:37.733Z,100889.85
2019-02-28T01:07:06.042Z,100885.90
2019-02-28T01:09:34.317Z,100883.91
2019-02-28T01:12:02.593Z,100875.53
2019-02-28T01:14:32.459Z,100864.30
2019-02-28T01:17:00.906Z,100858.89
2019-02-28T01:19:29.188Z,100848.61
2019-02-28T01:21:57.499Z,100854.41
2019-02-28T01:24:25.798Z,100849.67
2019-02-28T01:26:54.066Z,100848.98
2019-02-28T01:29:22.349Z,100853.06
2019-02-28T01:31:50.641Z,100841.98
2019-02-28T01:34:18.932Z,100843.02
2019-02-28T01:36:48.820Z,100837.98
2019-02-28T01:39:17.247Z,100834.93
2019-02-28T01:41:45.917Z,100835.38
2019-02-28T01:44:14.185Z,100836.23
2019-02-28T01:46:42.467Z,100830.19
2019-02-28T01:49:10.762Z,100823.74
2019-02-28T01:51:39.029Z,100824.14
2019-02-28T01:54:07.326Z,100824.19
2019-02-28T01:56:36.998Z,100809.86
2019-02-28T01:59:05.647Z,100812.06
2019-02-28T02:01:33.905Z,100807.27
2019-02-28T02:04:02.180Z,100805.17
2019-02-28T02:06:30.455Z,100806.84
2019-02-28T02:08:58.749Z,100802.89
2019-02-28T02:11:27.355Z,100808.73
2019-02-28T02:13:55.589Z,100804.54
2019-02-28T02:16:27.708Z,100797.44
2019-02-28T02:18:53.885Z,100797.59
2019-02-28T02:21:22.271Z,100802.00
2019-02-28T02:23:52.961Z,100793.41
2019-02-28T02:26:20.566Z,100792.86
2019-02-28T02:28:48.934Z,100791.31
2019-02-28T02:31:17.238Z,100782.92
2019-02-28T02:33:50.961Z,100780.69
2019-02-28T02:36:17.512Z,100767.27
2019-02-28T02:38:45.545Z,100765.56
2019-02-28T02:41:13.858Z,100762.86
2019-02-28T02:43:42.124Z,100758.67
2019-02-28T02:46:10.443Z,100752.13
2019-02-28T02:48:42.311Z,100749.98
2019-02-28T02:51:11.292Z,100750.73
2019-02-28T02:53:42.192Z,100747.94
2019-02-28T02:56:09.343Z,100745.92
2019-02-28T02:58:37.629Z,100763.83
2019-02-28T03:01:05.916Z,100774.06
2019-02-28T03:03:34.202Z,100776.60
2019-02-28T03:06:02.491Z,100775.94
2019-02-28T03:08:36.070Z,100780.84
2019-02-28T03:11:00.771Z,100776.55
2019-02-28T03:13:29.080Z,100781.80
2019-02-28T03:15:59.327Z,100781.80
2019-02-28T03:18:27.375Z,100781.94
2019-02-28T03:20:55.680Z,100785.22
2019-02-28T03:23:23.981Z,100797.98
2019-02-28T03:25:52.277Z,100774.83
2019-02-28T03:28:20.555Z,100769.77
2019-02-28T03:30:48.851Z,100771.39
2019-02-28T03:33:27.101Z,100770.32
2019-02-28T03:35:47.173Z,100767.33
2019-02-28T03:38:15.540Z,100768.72
2019-02-28T03:40:43.840Z,100759.09
2019-02-28T03:43:12.143Z,100756.55
2019-02-28T03:45:40.441Z,100760.54
2019-02-28T03:48:08.738Z,100769.56
2019-02-28T03:50:37.016Z,100766.77
2019-02-28T03:53:05.322Z,100758.77
2019-02-28T03:55:40.294Z,100759.40
2019-02-28T03:58:05.511Z,100768.56
2019-02-28T04:00:34.376Z,100759.95
2019-02-28T04:03:02.750Z,100763.70
2019-02-28T04:05:31.104Z,100762.09
2019-02-28T04:07:59.397Z,100753.66
2019-02-28T04:10:27.671Z,100744.94
2019-02-28T04:12:56.050Z,100730.38
2019-02-28T04:15:24.977Z,100730.23
2019-02-28T04:17:53.276Z,100720.37
2019-02-28T04:20:21.594Z,100710.90
2019-02-28T04:22:49.906Z,100718.36
2019-02-28T04:25:22.820Z,100721.98
2019-02-28T04:27:48.200Z,100729.30
2019-02-28T04:30:16.600Z,100726.27
2019-02-28T04:32:44.978Z,100730.55
2019-02-28T04:35:13.336Z,100721.17
2019-02-28T04:37:46.575Z,100717.06
2019-02-28T04:40:14.625Z,100713.75
2019-02-28T04:42:43.025Z,100711.61
2019-02-28T04:45:12.901Z,100706.48
2019-02-28T04:47:41.625Z,100715.39
2019-02-28T04:50:11.252Z,100714.55
2019-02-28T04:52:39.544Z,100724.78
2019-02-28T04:55:08.598Z,100729.28
2019-02-28T04:57:36.889Z,100716.73
2019-02-28T05:00:08.591Z,100714.23
2019-02-28T05:02:36.889Z,100714.36
2019-02-28T05:05:05.464Z,100714.72
2019-02-28T05:07:33.778Z,100713.83
2019-02-28T05:10:02.061Z,100707.84
2019-02-28T05:12:30.353Z,100704.94
2019-02-28T05:15:02.247Z,100697.22
2019-02-28T05:17:28.672Z,100695.97
2019-02-28T05:19:56.981Z,100704.53
2019-02-28T05:22:27.601Z,100706.64
2019-02-28T05:24:55.336Z,100713.91
2019-02-28T05:27:24.449Z,100708.20
2019-02-28T05:29:52.878Z,100706.02
2019-02-28T05:32:21.191Z,100701.33
2019-02-28T05:34:51.051Z,100695.57
2019-02-28T05:37:19.576Z,100691.88
2019-02-28T05:39:47.846Z,100695.31
2019-02-28T05:42:16.166Z,100687.55
2019-02-28T05:44:44.451Z,100691.34
2019-02-28T05:47:12.759Z,100685.44
2019-02-28T05:49:41.990Z,100685.98
2019-02-28T05:52:10.345Z,100679.42
2019-02-28T05:54:38.627Z,100669.42
2019-02-28T05:57:08.072Z,100666.64
2019-02-28T05:59:37.102Z,100661.20
2019-02-28T06:02:05.421Z,100675.53
2019-02-28T06:04:34.213Z,100679.59
2019-02-28T06:07:03.720Z,100687.05
2019-02-28T06:09:32.015Z,100690.08
2019-02-28T06:12:00.306Z,100675.98
2019-02-28T06:14:28.620Z,100679.06
2019-02-28T06:16:56.904Z,100685.80
2019-02-28T06:19:25.273Z,100686.83
2019-02-28T06:21:56.413Z,100695.89
2019-02-28T06:24:23.562Z,100700.44
2019-02-28T06:26:51.847Z,100703.04
2019-02-28T06:29:20.174Z,100704.67
2019-02-28T06:31:49.389Z,100695.49
2019-02-28T06:34:17.727Z,100716.08
2019-02-28T06:36:46.009Z,100723.61
2019-02-28T06:39:14.294Z,100721.25
2019-02-28T06:41:42.613Z,100723.80
2019-02-28T06:44:10.885Z,100734.20
2019-02-28T06:46:40.011Z,100726.64
2019-02-28T06:49:09.065Z,100728.94
2019-02-28T06:51:37.368Z,100732.10
2019-02-28T06:54:07.977Z,100731.42
2019-02-28T06:56:35.651Z,100734.34
2019-02-28T06:59:04.886Z,100726.64
2019-02-28T07:01:33.839Z,100722.23
2019-02-28T07:04:02.116Z,100718.27
2019-02-28T07:06:35.616Z,100713.53
2019-02-28T07:09:02.421Z,100718.53
2019-02-28T07:11:30.440Z,100713.84
2019-02-28T07:13:58.746Z,100716.88
2019-02-28T07:16:27.039Z,100704.73
2019-02-28T07:18:55.358Z,100696.20
2019-02-28T07:21:23.656Z,100700.09
2019-02-28T07:23:53.325Z,100702.14
2019-02-28T07:26:21.618Z,100709.91
2019-02-28T07:28:49.913Z,100718.17
2019-02-28T07:31:21.670Z,100728.53
2019-02-28T07:33:51.310Z,100730.59
2019-02-28T07:36:19.056Z,100733.18
2019-02-28T07:38:47.339Z,100736.17
2019-02-28T07:41:15.645Z,100733.84
2019-02-28T07:43:46.106Z,100733.45
2019-02-28T07:46:13.991Z,100742.80
2019-02-28T07:48:42.275Z,100741.41
2019-02-28T07:51:10.576Z,100726.13
2019-02-28T07:53:41.012Z,100729.92
2019-02-28T07:56:08.935Z,100731.58
2019-02-28T07:58:37.242Z,100740.30
2019-02-28T08:01:05.512Z,100737.70
2019-02-28T08:03:33.807Z,100751.33
2019-02-28T08:06:04.917Z,100743.24
2019-02-28T08:08:32.244Z,100744.48
2019-02-28T08:11:00.544Z,100746.27
2019-02-28T08:13:28.830Z,100745.55
2019-02-28T08:16:00.220Z,100749.78
2019-02-28T08:18:27.155Z,100754.65
2019-02-28T08:20:55.466Z,100755.27
2019-02-28T08:23:23.766Z,100753.41
2019-02-28T08:25:52.053Z,100765.58
2019-02-28T08:28:21.040Z,100764.00
2019-02-28T08:30:55.017Z,100770.81
2019-02-28T08:33:19.331Z,100765.73
2019-02-28T08:35:47.610Z,100763.33
2019-02-28T08:38:16.018Z,100757.14
2019-02-28T08:40:44.336Z,100765.03
2019-02-28T08:43:13.468Z,100760.12
2019-02-28T08:45:42.399Z,100768.27
2019-02-28T08:48:12.663Z,100776.64
2019-02-28T08:50:40.718Z,100773.97
2019-02-28T08:53:09.024Z,100782.23
2019-02-28T08:55:38.500Z,100778.98
2019-02-28T08:58:07.353Z,100782.73
2019-02-28T09:00:37.637Z,100774.78
2019-02-28T09:03:05.734Z,100772.69
2019-02-28T09:05:34.034Z,100770.61
2019-02-28T09:08:02.323Z,100770.27
2019-02-28T09:10:32.155Z,100774.38
2019-02-28T09:13:00.441Z,100769.77
2019-02-28T09:15:31.121Z,100778.63
2019-02-28T09:17:59.728Z,100785.88
2019-02-28T09:20:27.995Z,100794.59
2019-02-28T09:23:01.619Z,100793.00
2019-02-28T09:25:26.996Z,100794.20
2019-02-28T09:27:55.370Z,100794.84
2019-02-28T09:30:43.895Z,100793.75
2019-02-28T09:33:12.212Z,100792.37
2019-02-28T09:35:45.056Z,100799.88
2019-02-28T09:38:13.405Z,100805.88
2019-02-28T09:40:41.251Z,100806.72
2019-02-28T09:43:09.676Z,100795.11
2019-02-28T09:45:39.807Z,100808.76
2019-02-28T09:48:08.004Z,100810.75
2019-02-28T09:50:36.291Z,100814.48
2019-02-28T09:53:04.573Z,100815.47
2019-02-28T09:55:35.358Z,100809.28
2019-02-28T09:58:02.900Z,100813.58
2019-02-28T10:00:31.195Z,100815.08
2019-02-28T10:02:59.479Z,100808.42
2019-02-28T10:05:27.781Z,100804.03
2019-02-28T10:08:01.735Z,100818.67
2019-02-28T10:10:30.553Z,100825.30
2019-02-28T10:12:58.827Z,100823.84
2019-02-28T10:15:27.184Z,100815.81
2019-02-28T10:17:55.485Z,100814.51
2019-02-28T10:20:29.022Z,100814.83
2019-02-28T10:22:57.312Z,100818.67
2019-02-28T10:25:25.576Z,100829.96
2019-02-28T10:27:54.631Z,100832.41
2019-02-28T10:30:31.547Z,100829.96
2019-02-28T10:32:55.145Z,100830.84
2019-02-28T10:35:23.477Z,100829.58
2019-02-28T10:37:57.325Z,100823.80
2019-02-28T10:40:29.853Z,100829.68
2019-02-28T10:42:58.158Z,100838.05
2019-02-28T10:45:26.993Z,100838.05
2019-02-28T10:47:55.366Z,100841.08
2019-02-28T10:50:26.072Z,100837.53
2019-02-28T10:52:54.355Z,100830.83
2019-02-28T10:55:23.376Z,100827.05
2019-02-28T10:57:51.759Z,100831.84
2019-02-28T11:00:29.358Z,100841.44
2019-02-28T11:02:57.873Z,100832.95
2019-02-28T11:05:30.581Z,100822.77
2019-02-28T11:07:58.915Z,100822.36
2019-02-28T11:10:35.644Z,100829.16
2019-02-28T11:13:02.374Z,100818.97
2019-02-28T11:15:30.722Z,100817.77
2019-02-28T11:17:59.023Z,100818.97
2019-02-28T11:20:27.385Z,100831.86
2019-02-28T11:22:55.709Z,100838.85
2019-02-28T11:25:25.535Z,100847.31
2019-02-28T11:27:54.673Z,100845.69
2019-02-28T11:30:27.849Z,100842.33
2019-02-28T11:32:56.195Z,100852.06
2019-02-28T11:35:24.493Z,100863.44
2019-02-28T11:37:52.873Z,100864.14
2019-02-28T11:40:23.689Z,100851.01
2019-02-28T11:42:51.984Z,100854.91
2019-02-28T11:45:25.548Z,100840.63
2019-02-28T11:47:54.626Z,100824.02
2019-02-28T11:50:22.960Z,100832.59
2019-02-28T11:52:51.350Z,100838.20
2019-02-28T11:55:20.304Z,100845.19
2019-02-28T11:57:49.591Z,100846.02
2019-02-28T12:00:26.876Z,100836.92
2019-02-28T12:02:59.880Z,100848.77
2019-02-28T12:05:25.535Z,100841.19
2019-02-28T12:07:53.800Z,100835.95
2019-02-28T12:10:22.107Z,100834.84
2019-02-28T12:12:50.465Z,100825.69
2019-02-28T12:15:29.765Z,100816.58
2019-02-28T12:18:03.618Z,100812.86
2019-02-28T12:20:28.074Z,100812.97
2019-02-28T12:22:56.379Z,100820.59
2019-02-28T12:25:24.708Z,100816.47
2019-02-28T12:27:52.997Z,100827.59
2019-02-28T12:30:25.171Z,100816.91
2019-02-28T12:32:54.253Z,100808.27
2019-02-28T12:35:22.553Z,100806.92
2019-02-28T12:37:53.992Z,100809.81
2019-02-28T12:40:26.987Z,100806.81
2019-02-28T12:42:55.277Z,100813.08
2019-02-28T12:45:26.466Z,100815.17
2019-02-28T12:47:54.774Z,100825.56
2019-02-28T12:50:23.062Z,100816.80
2019-02-28T12:52:51.367Z,100806.02
2019-02-28T12:55:21.009Z,100811.22
2019-02-28T12:57:49.311Z,100809.42
2019-02-28T13:00:25.749Z,100799.37
2019-02-28T13:02:54.044Z,100801.27
2019-02-28T13:05:22.326Z,100808.01
2019-02-28T13:07:50.607Z,100811.93
2019-02-28T13:10:26.864Z,100804.43
2019-02-28T13:12:50.428Z,100806.39
2019-02-28T13:15:19.874Z,100799.74
2019-02-28T13:17:48.167Z,100795.63
2019-02-28T13:20:19.259Z,100793.77
2019-02-28T13:22:47.571Z,100800.25
2019-02-28T13:25:19.375Z,100803.52
2019-02-28T13:27:46.212Z,100809.30
2019-02-28T13:30:17.517Z,100808.17
2019-02-28T13:32:45.814Z,100814.70
2019-02-28T13:35:18.887Z,100803.58
2019-02-28T13:37:47.216Z,100792.30
2019-02-28T13:40:16.221Z,100792.03
2019-02-28T13:42:44.509Z,100798.91
2019-02-28T13:45:22.982Z,100793.65
2019-02-28T13:47:49.609Z,100789.13
2019-02-28T13:50:34.305Z,100775.20
2019-02-28T13:53:17.088Z,100777.94
2019-02-28T13:55:32.608Z,100786.08
2019-02-28T13:58:01.071Z,100778.91
2019-02-28T14:00:32.518Z,100774.67
2019-02-28T14:03:10.298Z,100783.53
2019-02-28T14:05:41.046Z,100789.83
2019-02-28T14:08:11.185Z,100783.73
2019-02-28T14:10:38.792Z,100779.20
2019-02-28T14:13:07.217Z,100791.97
2019-02-28T14:15:43.086Z,100791.34
2019-02-28T14:18:11.930Z,100781.11
2019-02-28T14:20:40.205Z,100790.09
2019-02-28T14:23:08.565Z,100792.48
2019-02-28T14:25:39.711Z,100789.45
2019-02-28T14:28:06.884Z,100795.50
2019-02-28T14:30:35.195Z,100799.42
2019-02-28T14:33:03.550Z,100787.95
2019-02-28T14:35:35.485Z,100792.87
2019-02-28T14:38:02.520Z,100799.00
2019-02-28T14:40:30.825Z,100800.09
2019-02-28T14:42:59.142Z,100800.61
2019-02-28T14:45:33.222Z,100796.75
2019-02-28T14:48:04.379Z,100803.31
2019-02-28T14:50:31.528Z,100809.81
2019-02-28T14:52:59.837Z,100812.57
2019-02-28T14:55:29.261Z,100820.41
2019-02-28T14:57:58.146Z,100811.19
2019-02-28T15:00:29.129Z,100810.73
2019-02-28T15:02:59.510Z,100813.33
2019-02-28T15:05:28.640Z,100811.48
2019-02-28T15:07:57.386Z,100807.98
2019-02-28T15:10:27.623Z,100811.03
2019-02-28T15:12:58.624Z,100813.47
2019-02-28T15:15:26.681Z,100810.73
2019-02-28T15:17:54.966Z,100814.22
2019-02-28T15:20:23.297Z,100822.41
2019-02-28T15:22:52.431Z,100820.97
2019-02-28T15:25:23.513Z,100817.77
2019-02-28T15:27:51.795Z,100809.70
2019-02-28T15:30:25.168Z,100814.83
2019-02-28T15:32:54.402Z,100813.37
2019-02-28T15:35:23.816Z,100811.23
2019-02-28T15:37:52.162Z,100810.63
2019-02-28T15:40:26.138Z,100808.23
2019-02-28T15:42:54.441Z,100802.75
2019-02-28T15:45:22.729Z,100811.19
2019-02-28T15:47:55.413Z,100812.83
2019-02-28T15:50:22.763Z,100810.69
2019-02-28T15:52:51.058Z,100811.19
2019-02-28T15:55:20.091Z,100822.02
2019-02-28T15:57:48.374Z,100819.91
2019-02-28T16:00:23.046Z,100812.83
2019-02-28T16:02:51.433Z,100806.89
2019-02-28T16:05:19.835Z,100803.45
2019-02-28T16:07:50.433Z,100799.41
2019-02-28T16:10:23.875Z,100809.78
2019-02-28T16:12:52.245Z,100799.45
2019-02-28T16:15:20.535Z,100796.96
2019-02-28T16:17:48.820Z,100794.72
2019-02-28T16:20:17.698Z,100791.42
2019-02-28T16:22:46.349Z,100795.05
2019-02-28T16:25:20.196Z,100795.66
2019-02-28T16:27:48.577Z,100789.53
2019-02-28T16:30:19.674Z,100795.31
2019-02-28T16:32:49.161Z,100795.31
2019-02-28T16:35:18.010Z,100798.09
2019-02-28T16:37:46.298Z,100794.72
2019-02-28T16:40:20.297Z,100795.05
2019-02-28T16:42:50.123Z,100796.41
2019-02-28T16:45:22.001Z,100790.03
2019-02-28T16:47:50.298Z,100785.44
2019-02-28T16:50:19.689Z,100788.28
2019-02-28T16:52:48.073Z,100781.74
2019-02-28T16:55:16.518Z,100788.52
2019-02-28T16:57:47.016Z,100785.28
2019-02-28T17:00:16.561Z,100784.06
2019-02-28T17:02:44.844Z,100786.77
2019-02-28T17:05:13.121Z,100792.31
2019-02-28T17:07:43.676Z,100791.81
2019-02-28T17:10:15.247Z,100792.42
2019-02-28T17:12:45.181Z,100791.52
2019-02-28T17:15:15.477Z,100795.70
2019-02-28T17:17:47.125Z,100802.34
2019-02-28T17:20:15.468Z,100807.69
2019-02-28T17:22:43.756Z,100804.09
2019-02-28T17:25:13.988Z,100812.28
2019-02-28T17:27:55.402Z,100813.68
2019-02-28T17:30:27.968Z,100818.27
2019-02-28T17:32:56.242Z,100811.08
2019-02-28T17:35:24.531Z,100812.08
2019-02-28T17:37:52.836Z,100814.08
2019-02-28T17:40:23.199Z,100807.34
2019-02-28T17:42:51.228Z,100803.80
2019-02-28T17:45:22.137Z,100800.25
2019-02-28T17:48:15.765Z,100801.65
2019-02-28T17:50:47.215Z,100804.09
2019-02-28T17:53:45.643Z,100801.70
2019-02-28T17:56:33.411Z,100799.20
2019-02-28T17:59:36.123Z,100807.44
2019-02-28T18:02:12.457Z,100798.35
2019-02-28T18:05:03.188Z,100799.50
2019-02-28T18:07:57.796Z,100784.56
2019-02-28T18:10:52.197Z,100792.70
2019-02-28T18:13:23.659Z,100791.00
2019-02-28T18:16:23.619Z,100800.70
2019-02-28T18:19:00.985Z,100799.34
2019-02-28T18:21:41.925Z,100803.40
2019-02-28T18:24:28.456Z,100808.11
2019-02-28T18:27:02.861Z,100809.23
2019-02-28T18:30:10.174Z,100809.14
2019-02-28T18:32:38.422Z,100807.79
2019-02-28T18:35:08.744Z,100815.89
2019-02-28T18:37:37.025Z,100816.25
2019-02-28T18:40:07.066Z,100823.56
2019-02-28T18:42:35.337Z,100813.05
2019-02-28T18:45:03.886Z,100814.80
2019-02-28T18:47:32.197Z,100803.36
2019-02-28T18:50:00.534Z,100806.13
2019-02-28T18:52:29.066Z,100801.84
2019-02-28T18:55:05.775Z,100806.37
2019-02-28T18:57:27.367Z,100798.55
2019-02-28T18:59:55.653Z,100805.88
2019-02-28T19:02:23.938Z,100800.16
2019-02-28T19:04:52.219Z,100800.69
2019-02-28T19:07:20.607Z,100795.25
2019-02-28T19:09:48.926Z,100786.63
2019-02-28T19:12:17.177Z,100793.73
2019-02-28T19:14:45.474Z,100787.70
2019-02-28T19:17:13.766Z,100795.88
2019-02-28T19:19:42.048Z,100802.31
2019-02-28T19:22:10.360Z,100798.02
2019-02-28T19:24:38.649Z,100801.72
2019-02-28T19:27:06.956Z,100801.86
2019-02-28T19:29:35.261Z,100790.64
2019-02-28T19:32:03.552Z,100794.67
2019-02-28T19:34:31.825Z,100798.02
2019-02-28T19:37:00.105Z,100802.27
2019-02-28T19:39:28.412Z,100807.40
2019-02-28T19:41:56.705Z,100810.39
2019-02-28T19:44:25.000Z,100806.45
2019-02-28T19:46:53.283Z,100798.23
2019-02-28T19:49:21.587Z,100787.74
2019-02-28T19:51:49.866Z,100786.22
2019-02-28T19:54:18.162Z,100785.77
2019-02-28T19:56:46.463Z,100778.89
2019-02-28T19:59:14.779Z,100778.63
2019-02-28T20:01:43.059Z,100778.09
2019-02-28T20:04:11.336Z,100773.45
2019-02-28T20:06:39.615Z,100775.05
2019-02-28T20:09:08.535Z,100772.45
2019-02-28T20:11:36.846Z,100772.50
2019-02-28T20:14:05.129Z,100768.13
2019-02-28T20:16:33.423Z,100764.81
2019-02-28T20:19:01.716Z,100766.88
2019-02-28T20:21:30.010Z,100767.86
2019-02-28T20:23:58.310Z,100765.84
2019-02-28T20:26:26.589Z,100773.89
2019-02-28T20:28:54.880Z,100777.51
2019-02-28T20:31:23.162Z,100779.59
2019-02-28T20:33:51.448Z,100777.56
2019-02-28T20:36:19.803Z,100774.69
2019-02-28T20:38:48.105Z,100775.89
2019-02-28T20:41:16.407Z,100772.95
2019-02-28T20:43:45.553Z,100770.00
2019-02-28T20:46:13.844Z,100770.05
2019-02-28T20:48:42.125Z,100778.09
2019-02-28T20:51:10.419Z,100782.56
2019-02-28T20:53:38.707Z,100783.27
2019-02-28T20:56:07.023Z,100784.29
2019-02-28T20:58:35.312Z,100782.64
2019-02-28T21:01:03.765Z,100789.44
2019-02-28T21:03:32.056Z,100789.13
2019-02-28T21:06:00.326Z,100793.31
2019-02-28T21:08:28.646Z,100792.70
2019-02-28T21:10:56.927Z,100788.58
2019-02-28T21:13:25.212Z,100789.83
2019-02-28T21:15:53.490Z,100792.02
2019-02-28T21:18:21.807Z,100786.13
2019-02-28T21:20:50.082Z,100783.22
2019-02-28T21:23:18.390Z,100782.20
2019-02-28T21:25:46.672Z,100776.58
2019-02-28T21:28:14.950Z,100780.59
2019-02-28T21:30:43.227Z,100788.32
2019-02-28T21:33:11.519Z,100779.16
2019-02-28T21:35:39.837Z,100783.14
2019-02-28T21:38:08.110Z,100775.36
2019-02-28T21:40:36.417Z,100777.83
2019-02-28T21:43:04.769Z,100783.57
2019-02-28T21:45:33.773Z,100786.17
2019-02-28T21:48:02.111Z,100783.59
2019-02-28T21:50:30.413Z,100785.51
2019-02-28T21:52:58.684Z,100778.55
2019-02-28T21:55:26.978Z,100775.23
2019-02-28T21:57:55.319Z,100770.41
2019-02-28T22:00:25.521Z,100765.19
2019-02-28T22:02:53.799Z,100765.55
2019-02-28T22:05:22.151Z,100768.14
2019-02-28T22:07:50.439Z,100768.45
2019-02-28T22:10:18.783Z,100773.55
2019-02-28T22:12:47.074Z,100764.23
2019-02-28T22:15:18.093Z,100762.58
2019-02-28T22:17:46.377Z,100760.55
2019-02-28T22:20:15.065Z,100761.22
2019-02-28T22:22:43.354Z,100766.44
2019-02-28T22:25:13.178Z,100767.83
2019-02-28T22:27:41.477Z,100778.05
2019-02-28T22:30:38.683Z,100768.67
2019-02-28T22:33:08.598Z,100769.08
2019-02-28T22:35:43.919Z,100766.77
2019-02-28T22:38:12.217Z,100764.34
2019-02-28T22:40:40.517Z,100765.11
2019-02-28T22:43:08.788Z,100764.99
2019-02-28T22:45:37.069Z,100765.89
2019-02-28T22:48:05.433Z,100773.66
2019-02-28T22:50:33.713Z,100768.83
2019-02-28T22:53:01.982Z,100755.44
2019-02-28T22:55:30.333Z,100749.31
2019-02-28T22:57:58.639Z,100748.29
2019-02-28T23:01:06.681Z,100749.44
2019-02-28T23:03:35.734Z,100746.89
2019-02-28T23:06:04.194Z,100747.55
2019-02-28T23:08:32.558Z,100746.47
2019-02-28T23:11:00.833Z,100742.67
2019-02-28T23:13:29.119Z,100733.97
2019-02-28T23:15:57.417Z,100734.88
2019-02-28T23:18:25.714Z,100733.00
2019-02-28T23:20:53.994Z,100723.94
2019-02-28T23:23:22.276Z,100726.36
2019-02-28T23:25:50.568Z,100725.47
2019-02-28T23:28:24.211Z,100724.07
2019-02-28T23:31:01.487Z,100715.85
2019-02-28T23:33:29.781Z,100707.83
2019-02-28T23:35:58.080Z,100709.02
2019-02-28T23:38:26.376Z,100703.41
2019-02-28T23:40:56.520Z,100701.73
2019-02-28T23:43:24.792Z,100707.16
2019-02-28T23:45:53.085Z,100703.39
2019-02-28T23:48:21.401Z,100701.42
2019-02-28T23:50:49.694Z,100702.95
2019-02-28T23:53:17.982Z,100702.33
2019-02-28T23:55:46.278Z,100705.68
2019-02-28T23:58:14.565Z,100710.67
